Time;durP1;ratioP1;P1;durP2;ratioP2;P2;SDS_P1;SDS_P2;PMS_P1;PMS_P2;Temp;Humidity;BMP_temperature;BMP_pressure;BME280_temperature;BME280_humidity;BME280_pressure;Samples;Min_cycle;Max_cycle;Signal;HPM_P1;HPM_P2
2023/09/25 00:02:00;;;;;;;;;;;;;;;;;;5090476;28;1906;-64
2023/09/25 00:04:25;;;;;;;;;;;;;;;;;;5091393;28;1182;-64
2023/09/25 00:06:50;;;;;;;;;;;;;;;;;;5090851;28;871;-64
2023/09/25 00:09:16;;;;;;;;;;;;;;;;;;5091292;28;797;-63
2023/09/25 00:11:41;;;;;;;;;;;;;;;;;;5090354;28;995;-64
2023/09/25 00:14:06;;;;;;;;;;;;;;;;;;5099708;28;1107;-64
2023/09/25 00:16:31;;;;;;;;;;;;;;;;;;5087158;28;1202;-64
2023/09/25 00:18:57;;;;;;;;;;;;;;;;;;5089445;28;1207;-64
2023/09/25 00:21:22;;;;;;;;;;;;;;;;;;5087682;28;1928;-64
2023/09/25 00:23:48;;;;;;;;;;;;;;;;;;5088095;28;921;-63
2023/09/25 00:26:14;;;;;;;;;;;;;;;;;;5089938;28;852;-63
2023/09/25 00:28:40;;;;;;;;;;;;;;;;;;5089870;28;1376;-64
2023/09/25 00:31:09;;;;;;;;;;;;;;;;;;5091737;28;832;-64
2023/09/25 00:33:34;;;;;;;;;;;;;;;;;;5093539;28;825;-64
2023/09/25 00:36:00;;;;;;;;;;;;;;;;;;5093166;28;867;-64
2023/09/25 00:38:25;;;;;;;;;;;;;;;;;;5093479;28;896;-64
2023/09/25 00:40:50;;;;;;;;;;;;;;;;;;5093039;28;1906;-64
2023/09/25 00:43:15;;;;;;;;;;;;;;;;;;5093395;28;1080;-64
2023/09/25 00:45:41;;;;;;;;;;;;;;;;;;5092766;28;879;-64
2023/09/25 00:48:16;;;;;;;;;;;;;;;;;;5093511;28;822;-64
2023/09/25 00:50:41;;;;;;;;;;;;;;;;;;5092982;28;1011;-64
2023/09/25 00:53:09;;;;;;;;;;;;;;;;;;5093279;28;863;-64
2023/09/25 00:55:34;;;;;;;;;;;;;;;;;;5093039;28;923;-64
2023/09/25 00:58:00;;;;;;;;;;;;;;;;;;5092938;28;915;-64
2023/09/25 01:00:25;;;;;;;;;;;;;;;;;;5093186;28;1957;-63
2023/09/25 01:02:51;;;;;;;;;;;;;;;;;;5093011;28;974;-64
2023/09/25 01:05:16;;;;;;;;;;;;;;;;;;5093132;28;935;-63
2023/09/25 01:07:42;;;;;;;;;;;;;;;;;;5093088;28;1059;-63
2023/09/25 01:10:07;;;;;;;;;;;;;;;;;;5093702;28;888;-64
2023/09/25 01:12:33;;;;;;;;;;;;;;;;;;5093595;28;778;-64
2023/09/25 01:14:58;;;;;;;;;;;;;;;;;;5093644;28;821;-63
2023/09/25 01:17:24;;;;;;;;;;;;;;;;;;5093426;28;880;-63
2023/09/25 01:19:49;;;;;;;;;;;;;;;;;;5092859;28;933;-64
2023/09/25 01:22:14;;;;;;;;;;;;;;;;;;5092906;28;1914;-64
2023/09/25 01:24:40;;;;;;;;;;;;;;;;;;5091942;28;898;-64
2023/09/25 01:27:05;;;;;;;;;;;;;;;;;;5092972;28;1046;-63
2023/09/25 01:29:30;;;;;;;;;;;;;;;;;;5092271;28;1434;-63
2023/09/25 01:31:55;;;;;;;;;;;;;;;;;;5093272;28;1165;-63
2023/09/25 01:34:21;;;;;;;;;;;;;;;;;;5092313;28;1361;-64
2023/09/25 01:36:46;;;;;;;;;;;;;;;;;;5092737;28;1061;-63
2023/09/25 01:39:12;;;;;;;;;;;;;;;;;;5091998;28;888;-63
2023/09/25 01:41:37;;;;;;;;;;;;;;;;;;5092792;28;1973;-64
2023/09/25 01:44:02;;;;;;;;;;;;;;;;;;5093209;28;859;-64
2023/09/25 01:46:27;;;;;;;;;;;;;;;;;;5093141;28;867;-63
2023/09/25 01:48:53;;;;;;;;;;;;;;;;;;5092976;28;856;-64
2023/09/25 01:51:18;;;;;;;;;;;;;;;;;;5092982;28;840;-63
2023/09/25 01:53:46;;;;;;;;;;;;;;;;;;5092487;28;923;-64
2023/09/25 01:56:14;;;;;;;;;;;;;;;;;;5093013;28;900;-63
2023/09/25 01:58:44;;;;;;;;;;;;;;;;;;5092284;28;849;-64
2023/09/25 02:01:09;;;;;;;;;;;;;;;;;;5092193;28;1936;-64
2023/09/25 02:03:34;;;;;;;;;;;;;;;;;;5092406;28;915;-64
2023/09/25 02:06:00;;;;;;;;;;;;;;;;;;5091789;28;1051;-64
2023/09/25 02:08:25;;;;;;;;;;;;;;;;;;5090055;28;1215;-64
2023/09/25 02:10:50;;;;;;;;;;;;;;;;;;5091275;28;1053;-64
2023/09/25 02:13:15;;;;;;;;;;;;;;;;;;5091515;28;927;-64
2023/09/25 02:15:41;;;;;;;;;;;;;;;;;;5091360;28;963;-64
2023/09/25 02:18:08;;;;;;;;;;;;;;;;;;5091126;28;876;-64
2023/09/25 02:20:33;;;;;;;;;;;;;;;;;;5090833;28;1903;-64
2023/09/25 02:22:59;;;;;;;;;;;;;;;;;;5100868;28;1226;-64
2023/09/25 02:25:24;;;;;;;;;;;;;;;;;;5091058;28;1119;-64
2023/09/25 02:27:49;;;;;;;;;;;;;;;;;;5070515;28;1313;-65
2023/09/25 02:30:14;;;;;;;;;;;;;;;;;;5091013;28;1073;-65
2023/09/25 02:32:42;;;;;;;;;;;;;;;;;;5091375;28;833;-63
2023/09/25 02:35:07;;;;;;;;;;;;;;;;;;5090371;28;1780;-64
2023/09/25 02:37:33;;;;;;;;;;;;;;;;;;5090862;28;835;-63
2023/09/25 02:39:58;;;;;;;;;;;;;;;;;;5091224;28;831;-64
2023/09/25 02:42:23;;;;;;;;;;;;;;;;;;5091110;28;1945;-64
2023/09/25 02:44:49;;;;;;;;;;;;;;;;;;5091126;28;823;-64
2023/09/25 02:47:14;;;;;;;;;;;;;;;;;;5091470;28;950;-64
2023/09/25 02:49:40;;;;;;;;;;;;;;;;;;5089682;28;954;-64
2023/09/25 02:52:05;;;;;;;;;;;;;;;;;;5090925;28;851;-64
2023/09/25 02:54:30;;;;;;;;;;;;;;;;;;5090104;28;907;-64
2023/09/25 02:56:56;;;;;;;;;;;;;;;;;;5090988;28;844;-65
2023/09/25 02:59:21;;;;;;;;;;;;;;;;;;5090987;28;868;-64
2023/09/25 03:01:46;;;;;;;;;;;;;;;;;;5090681;28;1917;-63
2023/09/25 03:04:11;;;;;;;;;;;;;;;;;;5091565;28;862;-63
2023/09/25 03:06:37;;;;;;;;;;;;;;;;;;5091024;28;812;-64
2023/09/25 03:09:02;;;;;;;;;;;;;;;;;;5090988;28;899;-63
2023/09/25 03:11:30;;;;;;;;;;;;;;;;;;5091721;28;820;-64
2023/09/25 03:13:55;;;;;;;;;;;;;;;;;;5090776;28;907;-63
2023/09/25 03:16:20;;;;;;;;;;;;;;;;;;5089421;28;873;-63
2023/09/25 03:18:46;;;;;;;;;;;;;;;;;;5091233;28;853;-62
2023/09/25 03:21:12;;;;;;;;;;;;;;;;;;5091631;28;1906;-63
2023/09/25 03:23:38;;;;;;;;;;;;;;;;;;5091609;28;922;-63
2023/09/25 03:26:03;;;;;;;;;;;;;;;;;;5090717;28;919;-63
2023/09/25 03:28:28;;;;;;;;;;;;;;;;;;5091659;28;1065;-64
2023/09/25 03:30:53;;;;;;;;;;;;;;;;;;5090948;28;1254;-64
2023/09/25 03:33:21;;;;;;;;;;;;;;;;;;5091578;28;860;-64
2023/09/25 03:35:46;;;;;;;;;;;;;;;;;;5091377;28;1012;-64
2023/09/25 03:38:11;;;;;;;;;;;;;;;;;;5091838;28;990;-63
2023/09/25 03:40:36;;;;;;;;;;;;;;;;;;5091602;28;1891;-64
2023/09/25 03:43:02;;;;;;;;;;;;;;;;;;5091169;28;1029;-64
2023/09/25 03:45:28;;;;;;;;;;;;;;;;;;5090131;28;996;-64
2023/09/25 03:47:53;;;;;;;;;;;;;;;;;;5090477;28;805;-64
2023/09/25 03:50:18;;;;;;;;;;;;;;;;;;5090966;28;899;-64
2023/09/25 03:52:44;;;;;;;;;;;;;;;;;;5090514;28;1002;-64
2023/09/25 03:55:09;;;;;;;;;;;;;;;;;;5091019;28;793;-63
2023/09/25 03:57:34;;;;;;;;;;;;;;;;;;5089135;28;1283;-63
2023/09/25 04:00:00;;;;;;;;;;;;;;;;;;5090109;28;887;-63
2023/09/25 04:02:25;;;;;;;;;;;;;;;;;;5072265;28;1922;-62
2023/09/25 04:04:51;;;;;;;;;;;;;;;;;;5090616;28;1055;-63
2023/09/25 04:07:16;;;;;;;;;;;;;;;;;;5094285;28;848;-63
2023/09/25 04:09:41;;;;;;;;;;;;;;;;;;5094238;28;1025;-63
2023/09/25 04:12:08;;;;;;;;;;;;;;;;;;5094084;28;804;-63
2023/09/25 04:14:35;;;;;;;;;;;;;;;;;;5093928;28;860;-63
2023/09/25 04:17:01;;;;;;;;;;;;;;;;;;5092352;28;1205;-63
2023/09/25 04:19:27;;;;;;;;;;;;;;;;;;5093816;28;897;-63
2023/09/25 04:21:52;;;;;;;;;;;;;;;;;;5093566;28;1951;-63
2023/09/25 04:24:18;;;;;;;;;;;;;;;;;;5094488;28;864;-63
2023/09/25 04:26:43;;;;;;;;;;;;;;;;;;5091949;28;1508;-63
2023/09/25 04:29:14;;;;;;;;;;;;;;;;;;5093697;28;1124;-64
2023/09/25 04:31:39;;;;;;;;;;;;;;;;;;5093919;28;832;-63
2023/09/25 04:34:04;;;;;;;;;;;;;;;;;;5074612;28;1290;-63
2023/09/25 04:36:30;;;;;;;;;;;;;;;;;;5098490;28;1155;-63
2023/09/25 04:38:55;;;;;;;;;;;;;;;;;;5092876;28;1162;-63
2023/09/25 04:41:21;;;;;;;;;;;;;;;;;;5092356;28;1914;-63
2023/09/25 04:43:47;;;;;;;;;;;;;;;;;;5093620;28;820;-63
2023/09/25 04:46:12;;;;;;;;;;;;;;;;;;5092473;28;888;-63
2023/09/25 04:48:38;;;;;;;;;;;;;;;;;;5093346;28;852;-63
2023/09/25 04:51:03;;;;;;;;;;;;;;;;;;5093051;28;832;-63
2023/09/25 04:53:29;;;;;;;;;;;;;;;;;;5093644;28;911;-63
2023/09/25 04:55:55;;;;;;;;;;;;;;;;;;5092359;28;955;-63
2023/09/25 04:58:20;;;;;;;;;;;;;;;;;;5093457;28;958;-64
2023/09/25 05:00:45;;;;;;;;;;;;;;;;;;5092627;28;1913;-64
2023/09/25 05:03:10;;;;;;;;;;;;;;;;;;5094341;28;813;-63
2023/09/25 05:05:35;;;;;;;;;;;;;;;;;;5094574;28;1031;-63
2023/09/25 05:08:01;;;;;;;;;;;;;;;;;;5094239;28;911;-63
2023/09/25 05:10:27;;;;;;;;;;;;;;;;;;5094824;28;804;-63
2023/09/25 05:12:53;;;;;;;;;;;;;;;;;;5092788;28;848;-63
2023/09/25 05:15:19;;;;;;;;;;;;;;;;;;5094365;28;822;-64
2023/09/25 05:17:45;;;;;;;;;;;;;;;;;;5092519;28;880;-63
2023/09/25 05:20:11;;;;;;;;;;;;;;;;;;5093807;28;742;-64
2023/09/25 05:22:37;;;;;;;;;;;;;;;;;;5093461;28;1896;-62
2023/09/25 05:25:03;;;;;;;;;;;;;;;;;;5093426;28;841;-63
2023/09/25 05:27:28;;;;;;;;;;;;;;;;;;5093548;28;863;-63
2023/09/25 05:29:56;;;;;;;;;;;;;;;;;;5092447;28;1652;-65
2023/09/25 05:32:21;;;;;;;;;;;;;;;;;;5092905;28;1032;-63
2023/09/25 05:34:46;;;;;;;;;;;;;;;;;;5092652;28;845;-64
2023/09/25 05:37:12;;;;;;;;;;;;;;;;;;5092879;28;983;-65
2023/09/25 05:39:37;;;;;;;;;;;;;;;;;;5092398;28;861;-64
2023/09/25 05:42:02;;;;;;;;;;;;;;;;;;5091859;28;1973;-64
2023/09/25 05:44:28;;;;;;;;;;;;;;;;;;5091675;28;1218;-65
2023/09/25 05:46:53;;;;;;;;;;;;;;;;;;5090813;28;1238;-64
2023/09/25 05:49:18;;;;;;;;;;;;;;;;;;5092171;28;915;-64
2023/09/25 05:51:43;;;;;;;;;;;;;;;;;;5091773;28;891;-64
2023/09/25 05:54:09;;;;;;;;;;;;;;;;;;5092312;28;986;-64
2023/09/25 05:56:35;;;;;;;;;;;;;;;;;;5092159;28;991;-64
2023/09/25 05:59:00;;;;;;;;;;;;;;;;;;5073319;28;1184;-64
2023/09/25 06:01:26;;;;;;;;;;;;;;;;;;5073819;28;1910;-64
2023/09/25 06:03:52;;;;;;;;;;;;;;;;;;5091466;28;898;-64
2023/09/25 06:06:17;;;;;;;;;;;;;;;;;;5092004;28;864;-64
2023/09/25 06:08:42;;;;;;;;;;;;;;;;;;5091498;28;837;-64
2023/09/25 06:11:08;;;;;;;;;;;;;;;;;;5090153;28;1007;-64
2023/09/25 06:13:34;;;;;;;;;;;;;;;;;;5091874;28;887;-64
2023/09/25 06:15:59;;;;;;;;;;;;;;;;;;5091200;28;908;-64
2023/09/25 06:18:24;;;;;;;;;;;;;;;;;;5090507;28;1317;-64
2023/09/25 06:20:50;;;;;;;;;;;;;;;;;;5091179;28;1959;-64
2023/09/25 06:23:16;;;;;;;;;;;;;;;;;;5092023;28;812;-63
2023/09/25 06:25:47;;;;;;;;;;;;;;;;;;5091324;28;927;-65
2023/09/25 06:28:14;;;;;;;;;;;;;;;;;;5090257;28;1203;-65
2023/09/25 06:30:40;;;;;;;;;;;;;;;;;;5091129;28;1078;-64
2023/09/25 06:33:06;;;;;;;;;;;;;;;;;;5091010;28;994;-64
2023/09/25 06:35:31;;;;;;;;;;;;;;;;;;5091354;28;832;-64
2023/09/25 06:37:57;;;;;;;;;;;;;;;;;;5090975;28;844;-64
2023/09/25 06:40:23;;;;;;;;;;;;;;;;;;5091578;28;860;-64
2023/09/25 06:42:48;;;;;;;;;;;;;;;;;;5090813;28;1957;-64
2023/09/25 06:45:13;;;;;;;;;;;;;;;;;;5091929;28;848;-64
2023/09/25 06:47:38;;;;;;;;;;;;;;;;;;5091980;28;785;-65
2023/09/25 06:50:04;;;;;;;;;;;;;;;;;;5090849;28;959;-65
2023/09/25 06:52:29;;;;;;;;;;;;;;;;;;5092837;28;649;-64
2023/09/25 06:54:55;;;;;;;;;;;;;;;;;;5092206;28;800;-64
2023/09/25 06:57:21;;;;;;;;;;;;;;;;;;5092960;28;1231;-64
2023/09/25 06:59:46;;;;;;;;;;;;;;;;;;5091773;28;1081;-64
2023/09/25 07:02:11;;;;;;;;;;;;;;;;;;5090793;28;1953;-64
2023/09/25 07:04:37;;;;;;;;;;;;;;;;;;5104278;28;1292;-64
2023/09/25 07:07:03;;;;;;;;;;;;;;;;;;5100248;28;1230;-63
2023/09/25 07:09:49;;;;;;;;;;;;;;;;;;5107061;28;1219;-63
2023/09/25 07:12:15;;;;;;;;;;;;;;;;;;5091351;28;1474;-64
2023/09/25 07:14:44;;;;;;;;;;;;;;;;;;5090758;28;856;-64
2023/09/25 07:17:10;;;;;;;;;;;;;;;;;;5090850;28;781;-64
2023/09/25 07:19:35;;;;;;;;;;;;;;;;;;5090919;28;879;-64
2023/09/25 07:22:00;;;;;;;;;;;;;;;;;;5089092;28;1944;-64
2023/09/25 07:24:26;;;;;;;;;;;;;;;;;;5091137;28;884;-64
2023/09/25 07:26:51;;;;;;;;;;;;;;;;;;5090419;28;890;-63
2023/09/25 07:29:17;;;;;;;;;;;;;;;;;;5090710;28;911;-64
2023/09/25 07:31:42;;;;;;;;;;;;;;;;;;5090466;28;1233;-64
2023/09/25 07:34:08;;;;;;;;;;;;;;;;;;5089893;28;844;-64
2023/09/25 07:36:34;;;;;;;;;;;;;;;;;;5090852;28;824;-64
2023/09/25 07:39:00;;;;;;;;;;;;;;;;;;5088480;28;864;-65
2023/09/25 07:41:25;;;;;;;;;;;;;;;;;;5093512;28;1960;-65
2023/09/25 07:43:50;;;;;;;;;;;;;;;;;;5094118;28;986;-64
2023/09/25 07:46:18;;;;;;;;;;;;;;;;;;5094683;28;895;-64
2023/09/25 07:48:43;;;;;;;;;;;;;;;;;;5094709;28;895;-64
2023/09/25 07:51:08;;;;;;;;;;;;;;;;;;5094089;28;841;-64
2023/09/25 07:53:34;;;;;;;;;;;;;;;;;;5092897;28;1314;-64
2023/09/25 07:55:59;;;;;;;;;;;;;;;;;;5094004;28;898;-64
2023/09/25 07:58:27;;;;;;;;;;;;;;;;;;5094741;28;935;-63
2023/09/25 08:00:55;;;;;;;;;;;;;;;;;;5093490;28;1949;-63
2023/09/25 08:03:22;;;;;;;;;;;;;;;;;;5094522;28;901;-64
2023/09/25 08:05:47;;;;;;;;;;;;;;;;;;5094243;28;943;-64
2023/09/25 08:08:13;;;;;;;;;;;;;;;;;;5094248;28;999;-64
2023/09/25 08:10:41;;;;;;;;;;;;;;;;;;5093867;28;832;-64
2023/09/25 08:13:07;;;;;;;;;;;;;;;;;;5093455;28;876;-65
2023/09/25 08:15:32;;;;;;;;;;;;;;;;;;5094018;28;899;-64
2023/09/25 08:17:58;;;;;;;;;;;;;;;;;;5093384;28;827;-64
2023/09/25 08:20:26;;;;;;;;;;;;;;;;;;5094341;28;832;-65
2023/09/25 08:22:51;;;;;;;;;;;;;;;;;;5093388;28;1898;-65
2023/09/25 08:25:17;;;;;;;;;;;;;;;;;;5094062;28;931;-65
2023/09/25 08:27:43;;;;;;;;;;;;;;;;;;5094940;28;840;-65
2023/09/25 08:30:09;;;;;;;;;;;;;;;;;;5094331;28;814;-64
2023/09/25 08:32:35;;;;;;;;;;;;;;;;;;5092104;28;1210;-64
2023/09/25 08:35:01;;;;;;;;;;;;;;;;;;5093203;28;1057;-64
2023/09/25 08:37:27;;;;;;;;;;;;;;;;;;5093453;28;821;-68
2023/09/25 08:39:53;;;;;;;;;;;;;;;;;;5092036;28;1176;-65
2023/09/25 08:42:20;;;;;;;;;;;;;;;;;;5093989;28;1921;-64
2023/09/25 08:44:45;;;;;;;;;;;;;;;;;;5092491;28;1517;-64
2023/09/25 08:47:11;;;;;;;;;;;;;;;;;;5093288;28;896;-65
2023/09/25 08:49:38;;;;;;;;;;;;;;;;;;5093598;28;927;-65
2023/09/25 08:52:03;;;;;;;;;;;;;;;;;;5093550;28;915;-66
2023/09/25 08:54:28;;;;;;;;;;;;;;;;;;5094073;28;938;-66
2023/09/25 08:56:54;;;;;;;;;;;;;;;;;;5093210;28;1018;-66
2023/09/25 08:59:20;;;;;;;;;;;;;;;;;;5091641;28;1183;-67
2023/09/25 09:01:46;;;;;;;;;;;;;;;;;;5093371;28;1906;-66
2023/09/25 09:04:11;;;;;;;;;;;;;;;;;;5091005;28;1368;-67
2023/09/25 09:06:37;;;;;;;;;;;;;;;;;;5093727;28;848;-67
2023/09/25 09:09:02;;;;;;;;;;;;;;;;;;5092919;28;833;-66
2023/09/25 09:11:27;;;;;;;;;;;;;;;;;;5093227;28;1143;-66
2023/09/25 09:13:53;;;;;;;;;;;;;;;;;;5106332;28;1155;-66
2023/09/25 09:16:19;;;;;;;;;;;;;;;;;;5110384;28;1159;-67
2023/09/25 09:18:45;;;;;;;;;;;;;;;;;;5113838;28;864;-67
2023/09/25 09:21:24;;;;;;;;;;;;;;;;;;5112772;28;1889;-66
2023/09/25 09:23:50;;;;;;;;;;;;;;;;;;5113872;28;856;-68
2023/09/25 09:26:15;;;;;;;;;;;;;;;;;;5113431;28;821;-68
2023/09/25 09:28:43;;;;;;;;;;;;;;;;;;5113520;28;876;-68
2023/09/25 09:31:10;;;;;;;;;;;;;;;;;;5112347;28;1052;-68
2023/09/25 09:33:41;;;;;;;;;;;;;;;;;;5112212;28;1304;-67
2023/09/25 09:36:06;;;;;;;;;;;;;;;;;;5111252;28;841;-68
2023/09/25 09:38:33;;;;;;;;;;;;;;;;;;5113104;27;907;-68
2023/09/25 09:41:01;;;;;;;;;;;;;;;;;;5112389;28;1967;-67
2023/09/25 09:43:26;;;;;;;;;;;;;;;;;;5111988;28;1668;-67
2023/09/25 09:45:52;;;;;;;;;;;;;;;;;;5112737;28;1017;-68
2023/09/25 09:48:19;;;;;;;;;;;;;;;;;;5112116;28;978;-68
2023/09/25 09:50:46;;;;;;;;;;;;;;;;;;5112729;28;883;-68
2023/09/25 09:53:13;;;;;;;;;;;;;;;;;;5112141;28;824;-67
2023/09/25 09:55:39;;;;;;;;;;;;;;;;;;5112464;28;1005;-67
2023/09/25 09:58:05;;;;;;;;;;;;;;;;;;5111861;28;836;-67
2023/09/25 10:00:30;;;;;;;;;;;;;;;;;;5112350;28;929;-67
2023/09/25 10:02:56;;;;;;;;;;;;;;;;;;5111521;28;1899;-67
2023/09/25 10:05:21;;;;;;;;;;;;;;;;;;5112524;28;907;-68
2023/09/25 10:08:15;;;;;;;;;;;;;;;;;;5112611;28;1029;-67
2023/09/25 10:10:41;;;;;;;;;;;;;;;;;;5098979;28;1265;-68
2023/09/25 10:13:12;;;;;;;;;;;;;;;;;;5110920;28;1362;-68
2023/09/25 10:15:38;;;;;;;;;;;;;;;;;;5112372;28;907;-67
2023/09/25 10:18:05;;;;;;;;;;;;;;;;;;5111691;28;918;-68
2023/09/25 10:20:31;;;;;;;;;;;;;;;;;;5112315;28;828;-67
2023/09/25 10:23:03;;;;;;;;;;;;;;;;;;5111856;28;1947;-66
2023/09/25 10:25:30;;;;;;;;;;;;;;;;;;5112471;28;903;-67
2023/09/25 10:27:56;;;;;;;;;;;;;;;;;;5110965;28;986;-67
2023/09/25 10:30:22;;;;;;;;;;;;;;;;;;5111739;28;932;-67
2023/09/25 10:32:51;;;;;;;;;;;;;;;;;;5112289;28;1166;-67
2023/09/25 10:35:35;;;;;;;;;;;;;;;;;;5110638;28;1281;-67
2023/09/25 10:38:09;;;;;;;;;;;;;;;;;;5108321;28;1186;-68
2023/09/25 10:40:36;;;;;;;;;;;;;;;;;;5112372;28;868;-67
2023/09/25 10:43:01;;;;;;;;;;;;;;;;;;5111062;28;1909;-67
2023/09/25 10:45:27;;;;;;;;;;;;;;;;;;5112090;28;828;-67
2023/09/25 10:47:52;;;;;;;;;;;;;;;;;;5110801;28;1319;-68
2023/09/25 10:50:17;;;;;;;;;;;;;;;;;;5111049;28;998;-68
2023/09/25 10:52:43;;;;;;;;;;;;;;;;;;5112472;28;766;-67
2023/09/25 10:55:08;;;;;;;;;;;;;;;;;;5112036;28;927;-67
2023/09/25 10:57:33;;;;;;;;;;;;;;;;;;5110783;28;1642;-67
2023/09/25 11:00:08;;;;;;;;;;;;;;;;;;5112120;28;876;-66
2023/09/25 11:02:33;;;;;;;;;;;;;;;;;;5112315;28;1905;-66
2023/09/25 11:04:59;;;;;;;;;;;;;;;;;;5111776;28;1015;-68
2023/09/25 11:07:26;;;;;;;;;;;;;;;;;;5112251;28;896;-68
2023/09/25 11:09:55;;;;;;;;;;;;;;;;;;5112166;28;887;-67
2023/09/25 11:12:20;;;;;;;;;;;;;;;;;;5093632;28;1339;-67
2023/09/25 11:14:45;;;;;;;;;;;;;;;;;;5110553;28;884;-67
2023/09/25 11:17:11;;;;;;;;;;;;;;;;;;5096945;28;1183;-66
2023/09/25 11:19:36;;;;;;;;;;;;;;;;;;5095807;28;1159;-67
2023/09/25 11:22:02;;;;;;;;;;;;;;;;;;5108023;28;1968;-67
2023/09/25 11:24:28;;;;;;;;;;;;;;;;;;5109607;28;817;-67
2023/09/25 11:26:53;;;;;;;;;;;;;;;;;;5110103;28;899;-67
2023/09/25 11:29:19;;;;;;;;;;;;;;;;;;5110254;28;955;-67
2023/09/25 11:31:44;;;;;;;;;;;;;;;;;;5109505;28;1205;-67
2023/09/25 11:34:10;;;;;;;;;;;;;;;;;;5110373;28;1087;-67
2023/09/25 11:36:42;;;;;;;;;;;;;;;;;;5109853;28;960;-67
2023/09/25 11:39:14;;;;;;;;;;;;;;;;;;5111082;28;911;-67
2023/09/25 11:41:40;;;;;;;;;;;;;;;;;;5109723;28;1965;-67
2023/09/25 11:44:06;;;;;;;;;;;;;;;;;;5110937;28;933;-67
2023/09/25 11:46:31;;;;;;;;;;;;;;;;;;5111070;28;914;-68
2023/09/25 11:48:56;;;;;;;;;;;;;;;;;;5110178;28;872;-68
2023/09/25 11:51:21;;;;;;;;;;;;;;;;;;5109874;28;1285;-67
2023/09/25 11:53:48;;;;;;;;;;;;;;;;;;5109749;28;1456;-68
2023/09/25 11:56:13;;;;;;;;;;;;;;;;;;5110280;28;934;-67
2023/09/25 11:58:39;;;;;;;;;;;;;;;;;;5111491;28;843;-68
2023/09/25 12:01:05;;;;;;;;;;;;;;;;;;5110803;28;1901;-68
2023/09/25 12:03:37;;;;;;;;;;;;;;;;;;5092643;28;1392;-68
2023/09/25 12:06:03;;;;;;;;;;;;;;;;;;5109148;28;1276;-68
2023/09/25 12:08:28;;;;;;;;;;;;;;;;;;5109375;28;1568;-67
2023/09/25 12:10:55;;;;;;;;;;;;;;;;;;5110533;28;974;-67
2023/09/25 12:13:20;;;;;;;;;;;;;;;;;;5109687;28;868;-67
2023/09/25 12:15:46;;;;;;;;;;;;;;;;;;5092396;28;1858;-66
2023/09/25 12:18:11;;;;;;;;;;;;;;;;;;5110167;28;939;-67
2023/09/25 12:20:37;;;;;;;;;;;;;;;;;;5110375;28;876;-67
2023/09/25 12:23:02;;;;;;;;;;;;;;;;;;5109681;28;1948;-66
2023/09/25 12:25:29;;;;;;;;;;;;;;;;;;5110505;28;883;-66
2023/09/25 12:27:54;;;;;;;;;;;;;;;;;;5113825;28;943;-66
2023/09/25 12:30:19;;;;;;;;;;;;;;;;;;5113487;28;920;-66
2023/09/25 12:32:48;;;;;;;;;;;;;;;;;;5112654;28;1390;-67
2023/09/25 12:35:15;;;;;;;;;;;;;;;;;;5113802;28;836;-66
2023/09/25 12:37:48;;;;;;;;;;;;;;;;;;5113883;28;1018;-66
2023/09/25 12:40:15;;;;;;;;;;;;;;;;;;5113957;28;856;-66
2023/09/25 12:42:40;;;;;;;;;;;;;;;;;;5114060;28;1906;-66
2023/09/25 12:45:06;;;;;;;;;;;;;;;;;;5112519;28;1259;-66
2023/09/25 12:47:32;;;;;;;;;;;;;;;;;;5114240;28;899;-66
2023/09/25 12:49:58;;;;;;;;;;;;;;;;;;5112899;28;1228;-66
2023/09/25 12:52:23;;;;;;;;;;;;;;;;;;5112194;28;1268;-66
2023/09/25 12:54:49;;;;;;;;;;;;;;;;;;5114095;28;892;-66
2023/09/25 12:57:14;;;;;;;;;;;;;;;;;;5113339;28;832;-66
2023/09/25 12:59:40;;;;;;;;;;;;;;;;;;5113885;28;816;-66
2023/09/25 13:02:05;;;;;;;;;;;;;;;;;;5112857;28;1968;-66
2023/09/25 13:04:32;;;;;;;;;;;;;;;;;;5113178;28;1293;-66
2023/09/25 13:06:57;;;;;;;;;;;;;;;;;;5112691;28;988;-66
2023/09/25 13:09:22;;;;;;;;;;;;;;;;;;5114462;28;1014;-66
2023/09/25 13:11:48;;;;;;;;;;;;;;;;;;5113511;28;991;-66
2023/09/25 13:14:14;;;;;;;;;;;;;;;;;;5112746;28;844;-67
2023/09/25 13:16:39;;;;;;;;;;;;;;;;;;5114423;28;899;-67
2023/09/25 13:19:05;;;;;;;;;;;;;;;;;;5097494;28;1182;-66
2023/09/25 13:21:30;;;;;;;;;;;;;;;;;;5093816;28;1933;-66
2023/09/25 13:23:56;;;;;;;;;;;;;;;;;;5109897;28;1594;-66
2023/09/25 13:26:25;;;;;;;;;;;;;;;;;;5090729;28;1717;-66
2023/09/25 13:28:51;;;;;;;;;;;;;;;;;;5091966;28;852;-67
2023/09/25 13:31:17;;;;;;;;;;;;;;;;;;5091233;28;1087;-67
2023/09/25 13:33:42;;;;;;;;;;;;;;;;;;5092468;28;1174;-67
2023/09/25 13:36:07;;;;;;;;;;;;;;;;;;5092480;28;912;-67
2023/09/25 13:38:32;;;;;;;;;;;;;;;;;;5090292;28;995;-67
2023/09/25 13:40:58;;;;;;;;;;;;;;;;;;5091474;28;1906;-67
2023/09/25 13:43:23;;;;;;;;;;;;;;;;;;5091313;28;1265;-67
2023/09/25 13:45:48;;;;;;;;;;;;;;;;;;5092768;28;867;-67
2023/09/25 13:48:14;;;;;;;;;;;;;;;;;;5092017;28;907;-68
2023/09/25 13:50:39;;;;;;;;;;;;;;;;;;5090896;28;1274;-68
2023/09/25 13:53:04;;;;;;;;;;;;;;;;;;5091176;28;1222;-67
2023/09/25 13:55:29;;;;;;;;;;;;;;;;;;5091767;28;1245;-68
2023/09/25 13:57:55;;;;;;;;;;;;;;;;;;5104468;28;1179;-68
2023/09/25 14:00:20;;;;;;;;;;;;;;;;;;5111693;28;1143;-67
2023/09/25 14:02:45;;;;;;;;;;;;;;;;;;5112355;28;1959;-65
2023/09/25 14:05:14;;;;;;;;;;;;;;;;;;5111945;28;896;-68
2023/09/25 14:07:40;;;;;;;;;;;;;;;;;;5112482;28;832;-68
2023/09/25 14:10:06;;;;;;;;;;;;;;;;;;5112307;28;931;-68
2023/09/25 14:12:32;;;;;;;;;;;;;;;;;;5112542;28;860;-68
2023/09/25 14:14:57;;;;;;;;;;;;;;;;;;5112750;28;895;-68
2023/09/25 14:17:22;;;;;;;;;;;;;;;;;;5111076;28;919;-68
2023/09/25 14:19:48;;;;;;;;;;;;;;;;;;5110848;28;867;-65
2023/09/25 14:22:13;;;;;;;;;;;;;;;;;;5112359;28;1960;-66
2023/09/25 14:24:38;;;;;;;;;;;;;;;;;;5110826;28;832;-66
2023/09/25 14:27:03;;;;;;;;;;;;;;;;;;5112051;28;887;-67
2023/09/25 14:29:30;;;;;;;;;;;;;;;;;;5111514;28;883;-66
2023/09/25 14:31:56;;;;;;;;;;;;;;;;;;5110790;28;1137;-67
2023/09/25 14:34:21;;;;;;;;;;;;;;;;;;5111723;28;1338;-67
2023/09/25 14:36:47;;;;;;;;;;;;;;;;;;5111830;28;1122;-66
2023/09/25 14:39:12;;;;;;;;;;;;;;;;;;5110669;28;1177;-66
2023/09/25 14:41:37;;;;;;;;;;;;;;;;;;5111905;28;1895;-66
2023/09/25 14:44:03;;;;;;;;;;;;;;;;;;5111595;28;887;-67
2023/09/25 14:46:28;;;;;;;;;;;;;;;;;;5112954;28;931;-67
2023/09/25 14:48:55;;;;;;;;;;;;;;;;;;5113108;28;891;-67
2023/09/25 14:51:21;;;;;;;;;;;;;;;;;;5112704;28;982;-66
2023/09/25 14:53:46;;;;;;;;;;;;;;;;;;5112397;28;1177;-67
2023/09/25 14:56:11;;;;;;;;;;;;;;;;;;5114570;28;1091;-68
2023/09/25 14:58:37;;;;;;;;;;;;;;;;;;5114145;28;899;-68
2023/09/25 15:01:02;;;;;;;;;;;;;;;;;;5112768;28;1941;-69
2023/09/25 15:03:28;;;;;;;;;;;;;;;;;;5095281;28;1425;-68
2023/09/25 15:05:54;;;;;;;;;;;;;;;;;;5112262;28;1011;-68
2023/09/25 15:08:20;;;;;;;;;;;;;;;;;;5113314;28;1319;-68
2023/09/25 15:10:46;;;;;;;;;;;;;;;;;;5113092;28;840;-68
2023/09/25 15:13:11;;;;;;;;;;;;;;;;;;5112520;28;915;-68
2023/09/25 15:15:36;;;;;;;;;;;;;;;;;;5112011;28;1362;-68
2023/09/25 15:18:02;;;;;;;;;;;;;;;;;;5111238;28;1210;-68
2023/09/25 15:20:27;;;;;;;;;;;;;;;;;;5112816;28;879;-69
2023/09/25 15:22:53;;;;;;;;;;;;;;;;;;5111071;28;1893;-70
2023/09/25 15:25:18;;;;;;;;;;;;;;;;;;5112887;28;931;-68
2023/09/25 15:27:43;;;;;;;;;;;;;;;;;;5112597;28;773;-69
2023/09/25 15:30:09;;;;;;;;;;;;;;;;;;5111269;28;824;-67
2023/09/25 15:32:34;;;;;;;;;;;;;;;;;;5112939;28;1063;-67
2023/09/25 15:35:00;;;;;;;;;;;;;;;;;;5112537;28;848;-68
2023/09/25 15:37:27;;;;;;;;;;;;;;;;;;5112814;28;856;-69
2023/09/25 15:39:52;;;;;;;;;;;;;;;;;;5110455;28;1214;-68
2023/09/25 15:42:18;;;;;;;;;;;;;;;;;;5111649;28;1910;-68
2023/09/25 15:44:43;;;;;;;;;;;;;;;;;;5093711;28;1268;-69
2023/09/25 15:47:08;;;;;;;;;;;;;;;;;;5111413;28;943;-69
2023/09/25 15:49:34;;;;;;;;;;;;;;;;;;5110254;28;1352;-68
2023/09/25 15:51:59;;;;;;;;;;;;;;;;;;5093765;28;1323;-69
2023/09/25 15:54:27;;;;;;;;;;;;;;;;;;5109920;28;1231;-69
2023/09/25 15:56:53;;;;;;;;;;;;;;;;;;5109623;28;867;-69
2023/09/25 15:59:18;;;;;;;;;;;;;;;;;;5110982;28;837;-68
2023/09/25 16:01:43;;;;;;;;;;;;;;;;;;5112560;28;1901;-69
2023/09/25 16:04:08;;;;;;;;;;;;;;;;;;5112737;28;1487;-68
2023/09/25 16:06:34;;;;;;;;;;;;;;;;;;5115087;28;909;-68
2023/09/25 16:08:59;;;;;;;;;;;;;;;;;;5115058;28;845;-68
2023/09/25 16:11:24;;;;;;;;;;;;;;;;;;5114717;28;856;-68
2023/09/25 16:13:50;;;;;;;;;;;;;;;;;;5114699;28;832;-68
2023/09/25 16:16:15;;;;;;;;;;;;;;;;;;5113395;28;888;-68
2023/09/25 16:18:40;;;;;;;;;;;;;;;;;;5096501;28;1146;-68
2023/09/25 16:21:06;;;;;;;;;;;;;;;;;;5114791;27;1954;-68
2023/09/25 16:23:32;;;;;;;;;;;;;;;;;;5114158;28;1201;-68
2023/09/25 16:25:57;;;;;;;;;;;;;;;;;;5112875;28;844;-67
2023/09/25 16:28:23;;;;;;;;;;;;;;;;;;5113632;28;931;-68
2023/09/25 16:30:48;;;;;;;;;;;;;;;;;;5114844;28;1010;-69
2023/09/25 16:33:14;;;;;;;;;;;;;;;;;;5112929;28;1080;-68
2023/09/25 16:35:39;;;;;;;;;;;;;;;;;;5113745;28;1277;-68
2023/09/25 16:38:04;;;;;;;;;;;;;;;;;;5113273;28;1054;-66
2023/09/25 16:40:30;;;;;;;;;;;;;;;;;;5115357;28;1077;-68
2023/09/25 16:42:56;;;;;;;;;;;;;;;;;;5115354;28;1905;-70
2023/09/25 16:45:24;;;;;;;;;;;;;;;;;;5113773;27;1245;-69
2023/09/25 16:47:49;;;;;;;;;;;;;;;;;;5092575;28;1210;-68
2023/09/25 16:50:15;;;;;;;;;;;;;;;;;;5092472;28;1817;-69
2023/09/25 16:52:41;;;;;;;;;;;;;;;;;;5094218;28;1345;-69
2023/09/25 16:55:07;;;;;;;;;;;;;;;;;;5092598;28;1163;-68
2023/09/25 16:57:32;;;;;;;;;;;;;;;;;;5094468;28;840;-68
2023/09/25 16:59:59;;;;;;;;;;;;;;;;;;5097667;28;1254;-69
2023/09/25 17:02:25;;;;;;;;;;;;;;;;;;5093750;28;1968;-68
2023/09/25 17:04:53;;;;;;;;;;;;;;;;;;5093797;28;953;-68